Time;durP1;ratioP1;P1;durP2;ratioP2;P2;SDS_P1;SDS_P2;PMS_P1;PMS_P2;Temp;Humidity;BMP_temperature;BMP_pressure;BME280_temperature;BME280_humidity;BME280_pressure;Samples;Min_cycle;Max_cycle;Signal;HPM_P1;HPM_P2
2023/08/16 00:01:02;;;;;;;1.57;1.47;;;19.20;99.90;;;;;;5086003;28;20543;-77
2023/08/16 00:03:29;;;;;;;1.30;1.20;;;19.20;99.90;;;;;;5084339;28;20860;-80
2023/08/16 00:05:56;;;;;;;1.20;1.10;;;19.20;99.90;;;;;;5080748;28;20474;-80
2023/08/16 00:08:24;;;;;;;1.67;1.17;;;19.10;99.90;;;;;;5086248;28;20445;-78
2023/08/16 00:10:50;;;;;;;1.43;1.20;;;19.20;99.90;;;;;;5087078;28;20474;-77
2023/08/16 00:13:17;;;;;;;1.43;1.30;;;19.10;99.90;;;;;;5086733;28;20976;-79
2023/08/16 00:15:44;;;;;;;1.67;1.57;;;19.10;99.90;;;;;;5086124;28;21425;-79
2023/08/16 00:18:12;;;;;;;1.20;1.10;;;19.10;99.90;;;;;;5087223;28;20439;-78
2023/08/16 00:20:39;;;;;;;1.40;1.30;;;19.00;99.90;;;;;;5086330;28;20483;-81
2023/08/16 00:23:05;;;;;;;1.07;1.07;;;19.10;99.90;;;;;;5079375;28;20523;-81
2023/08/16 00:25:34;;;;;;;1.90;1.80;;;19.00;99.90;;;;;;5086751;28;20903;-81
2023/08/16 00:28:01;;;;;;;1.33;1.10;;;19.10;99.90;;;;;;5085130;28;21323;-79
2023/08/16 00:30:28;;;;;;;1.30;1.20;;;19.10;99.90;;;;;;5083476;28;20449;-78
2023/08/16 00:32:55;;;;;;;2.90;1.20;;;19.00;99.90;;;;;;5082397;28;20457;-80
2023/08/16 00:35:22;;;;;;;1.10;0.93;;;19.00;99.90;;;;;;5086791;28;20478;-80
2023/08/16 00:37:49;;;;;;;2.07;1.70;;;19.00;99.90;;;;;;5084143;28;20486;-79
2023/08/16 00:40:18;;;;;;;2.63;1.57;;;18.90;99.90;;;;;;5086386;28;20568;-78
2023/08/16 00:42:46;;;;;;;1.20;1.10;;;18.80;99.90;;;;;;5082821;28;20926;-79
2023/08/16 00:45:13;;;;;;;1.73;1.63;;;18.80;99.90;;;;;;5083336;28;20542;-80
2023/08/16 00:47:40;;;;;;;1.00;0.97;;;18.80;99.90;;;;;;5086186;28;20454;-79
2023/08/16 00:50:08;;;;;;;1.43;1.27;;;18.80;99.90;;;;;;5086071;28;20453;-78
2023/08/16 00:52:36;;;;;;;1.03;0.80;;;18.90;99.90;;;;;;5081516;28;21132;-80
2023/08/16 00:55:04;;;;;;;1.33;1.00;;;18.90;99.90;;;;;;5086457;28;20508;-79
2023/08/16 00:57:31;;;;;;;1.23;1.10;;;18.90;99.90;;;;;;5085512;28;20503;-79
2023/08/16 01:00:00;;;;;;;2.20;1.57;;;18.90;99.90;;;;;;5083118;28;20489;-80
2023/08/16 01:02:27;;;;;;;1.80;1.70;;;19.00;99.90;;;;;;5086303;28;20439;-78
2023/08/16 01:04:56;;;;;;;1.00;1.00;;;18.90;99.90;;;;;;5085266;28;20493;-78
2023/08/16 01:07:23;;;;;;;1.40;1.30;;;18.80;99.90;;;;;;5079630;28;20456;-80
2023/08/16 01:09:50;;;;;;;1.83;1.63;;;18.90;99.90;;;;;;5085165;28;20439;-80
2023/08/16 01:12:24;;;;;;;0.97;0.90;;;18.80;99.90;;;;;;5086093;28;20517;-79
2023/08/16 01:14:56;;;;;;;1.73;1.63;;;18.80;99.90;;;;;;5078754;28;20941;-79
2023/08/16 01:17:26;;;;;;;1.63;1.53;;;18.80;99.90;;;;;;5083126;28;20979;-80
2023/08/16 01:19:57;;;;;;;4.87;2.30;;;18.70;99.90;;;;;;5085728;28;20445;-77
2023/08/16 01:22:33;;;;;;;2.03;1.77;;;18.70;99.90;;;;;;5076779;28;20552;-77
2023/08/16 01:25:11;;;;;;;1.50;1.07;;;18.60;99.90;;;;;;5086455;28;20485;-78
2023/08/16 01:27:40;;;;;;;1.93;1.20;;;18.60;99.90;;;;;;5085039;28;20463;-79
2023/08/16 01:30:08;;;;;;;1.03;1.00;;;18.70;99.90;;;;;;5085999;28;20839;-80
2023/08/16 01:32:36;;;;;;;1.50;1.40;;;18.60;99.90;;;;;;5083011;28;21052;-79
2023/08/16 01:35:04;;;;;;;1.87;1.77;;;18.50;99.90;;;;;;5081691;28;20442;-79
2023/08/16 01:37:31;;;;;;;1.33;1.23;;;18.50;99.90;;;;;;5085071;28;20464;-79
2023/08/16 01:40:03;;;;;;;3.47;0.97;;;18.50;99.90;;;;;;5083548;28;20516;-80
2023/08/16 01:42:33;;;;;;;1.40;1.30;;;18.50;99.90;;;;;;5081735;28;20476;-79
2023/08/16 01:45:02;;;;;;;1.27;1.17;;;18.40;99.90;;;;;;5085017;28;21640;-79
2023/08/16 01:47:30;;;;;;;1.50;1.40;;;18.50;99.90;;;;;;5081607;28;20850;-78
2023/08/16 01:49:58;;;;;;;1.37;1.10;;;18.50;99.90;;;;;;5083467;28;20439;-77
2023/08/16 01:52:27;;;;;;;1.53;1.33;;;18.50;99.90;;;;;;5084261;28;20558;-78
2023/08/16 01:54:54;;;;;;;1.63;1.30;;;18.50;99.90;;;;;;5088339;28;20536;-79
2023/08/16 01:57:21;;;;;;;2.93;1.70;;;18.60;99.90;;;;;;5089478;28;20471;-80
2023/08/16 01:59:48;;;;;;;1.47;1.37;;;18.50;99.90;;;;;;5089452;28;20912;-80
2023/08/16 02:02:16;;;;;;;1.67;1.43;;;18.50;99.90;;;;;;5084115;28;20459;-80
2023/08/16 02:04:43;;;;;;;2.77;1.70;;;18.50;99.90;;;;;;5089540;28;20487;-77
2023/08/16 02:07:11;;;;;;;2.40;0.90;;;18.50;99.90;;;;;;5079867;28;20590;-78
2023/08/16 02:09:38;;;;;;;1.77;1.40;;;18.40;99.90;;;;;;5089575;28;20453;-78
2023/08/16 02:12:06;;;;;;;1.40;1.30;;;18.40;99.90;;;;;;5086424;28;20451;-79
2023/08/16 02:14:33;;;;;;;2.20;1.50;;;18.30;99.90;;;;;;5090436;28;20497;-80
2023/08/16 02:17:00;;;;;;;1.60;1.50;;;18.20;99.90;;;;;;5089520;28;20957;-80
2023/08/16 02:19:28;;;;;;;1.80;1.70;;;18.10;99.90;;;;;;5087488;28;20474;-79
2023/08/16 02:21:55;;;;;;;2.20;1.70;;;18.10;99.90;;;;;;5088173;28;20500;-79
2023/08/16 02:24:22;;;;;;;1.10;1.00;;;18.10;99.90;;;;;;5088943;28;20490;-79
2023/08/16 02:26:50;;;;;;;1.40;1.30;;;18.10;99.90;;;;;;5087064;28;21020;-79
2023/08/16 02:29:17;;;;;;;4.27;2.20;;;18.10;99.90;;;;;;5088637;28;20442;-80
2023/08/16 02:31:44;;;;;;;3.37;2.20;;;18.10;99.90;;;;;;5087014;28;20989;-77
2023/08/16 02:34:11;;;;;;;1.80;1.70;;;18.20;99.90;;;;;;5087776;28;20529;-78
2023/08/16 02:36:39;;;;;;;2.00;1.90;;;18.20;99.90;;;;;;5086420;28;20526;-77
2023/08/16 02:39:08;;;;;;;2.07;1.93;;;18.10;99.90;;;;;;5088354;28;20455;-79
2023/08/16 02:41:35;;;;;;;1.80;1.70;;;18.10;99.90;;;;;;5088708;28;21148;-78
2023/08/16 02:44:02;;;;;;;2.00;1.90;;;18.00;99.90;;;;;;5088624;28;20501;-79
2023/08/16 02:46:29;;;;;;;3.13;2.43;;;18.00;99.90;;;;;;5082367;28;20524;-80
2023/08/16 02:48:56;;;;;;;1.10;1.00;;;18.10;99.90;;;;;;5086978;28;20444;-80
2023/08/16 02:51:23;;;;;;;3.63;1.97;;;18.00;99.90;;;;;;5085879;28;20469;-80
2023/08/16 02:53:51;;;;;;;2.10;1.90;;;18.00;99.90;;;;;;5081854;28;20539;-80
2023/08/16 02:56:18;;;;;;;2.37;1.80;;;18.00;99.90;;;;;;5088220;28;20450;-80
2023/08/16 02:58:45;;;;;;;1.70;1.60;;;17.90;99.90;;;;;;5088345;28;20507;-79
2023/08/16 03:01:12;;;;;;;2.47;1.20;;;17.90;99.90;;;;;;5083210;28;20552;-81
2023/08/16 03:03:40;;;;;;;1.40;1.30;;;17.90;99.90;;;;;;5082295;28;20523;-78
2023/08/16 03:06:07;;;;;;;1.53;1.40;;;17.90;99.90;;;;;;5084658;28;20533;-79
2023/08/16 03:08:34;;;;;;;1.33;1.23;;;17.80;99.90;;;;;;5088032;28;20531;-79
2023/08/16 03:11:02;;;;;;;2.27;1.57;;;17.90;99.90;;;;;;5088463;28;20919;-80
2023/08/16 03:13:29;;;;;;;2.27;2.07;;;17.80;99.90;;;;;;5084674;28;20467;-80
2023/08/16 03:15:56;;;;;;;2.60;1.73;;;17.70;99.90;;;;;;5087930;28;20504;-81
2023/08/16 03:18:23;;;;;;;1.63;1.50;;;17.80;99.90;;;;;;5087060;28;20440;-80
2023/08/16 03:20:50;;;;;;;1.50;1.40;;;17.80;99.90;;;;;;5081286;28;20520;-80
2023/08/16 03:23:17;;;;;;;2.47;1.50;;;17.80;99.90;;;;;;5087434;28;20508;-79
2023/08/16 03:25:44;;;;;;;1.67;1.40;;;17.80;99.90;;;;;;5087378;28;20483;-81
2023/08/16 03:28:13;;;;;;;1.87;1.43;;;17.80;99.90;;;;;;5087876;28;20461;-78
2023/08/16 03:30:40;;;;;;;2.07;1.80;;;17.90;99.90;;;;;;5083797;28;20565;-78
2023/08/16 03:33:07;;;;;;;2.50;1.43;;;17.80;99.90;;;;;;5080237;28;20467;-78
2023/08/16 03:35:35;;;;;;;1.23;1.03;;;17.90;99.90;;;;;;5087175;28;20512;-78
2023/08/16 03:38:02;;;;;;;2.20;2.00;;;17.80;99.90;;;;;;5086252;28;20506;-80
2023/08/16 03:40:29;;;;;;;2.07;1.87;;;17.80;99.90;;;;;;5086736;28;20446;-80
2023/08/16 03:42:56;;;;;;;1.77;1.67;;;17.70;99.90;;;;;;5088102;28;20443;-80
2023/08/16 03:45:26;;;;;;;1.20;1.10;;;17.60;99.90;;;;;;5084909;28;20521;-79
2023/08/16 03:47:53;;;;;;;1.90;1.73;;;17.60;99.90;;;;;;5086420;28;20589;-80
2023/08/16 03:50:20;;;;;;;1.00;0.90;;;17.60;99.90;;;;;;5085208;28;21058;-78
2023/08/16 03:52:47;;;;;;;2.23;1.50;;;17.70;99.90;;;;;;5086756;28;20460;-80
2023/08/16 03:55:14;;;;;;;2.23;1.73;;;17.60;99.90;;;;;;5083611;28;20439;-80
2023/08/16 03:57:41;;;;;;;1.93;1.77;;;17.70;99.90;;;;;;5082918;28;20872;-79
2023/08/16 04:00:11;;;;;;;1.40;1.30;;;17.90;99.90;;;;;;5087299;28;20561;-80
2023/08/16 04:02:39;;;;;;;2.37;2.17;;;17.90;99.90;;;;;;5087699;28;21008;-78
2023/08/16 04:05:11;;;;;;;2.30;1.33;;;17.80;99.90;;;;;;5079415;28;20520;-79
2023/08/16 04:07:38;;;;;;;1.50;1.40;;;17.80;99.90;;;;;;5083501;28;20993;-78
2023/08/16 04:10:07;;;;;;;2.00;1.80;;;17.80;99.90;;;;;;5087232;28;20489;-80
2023/08/16 04:12:34;;;;;;;2.87;2.67;;;17.80;99.90;;;;;;5081739;28;20517;-79
2023/08/16 04:15:01;;;;;;;1.80;1.70;;;17.90;99.90;;;;;;5087608;28;20498;-80
2023/08/16 04:17:28;;;;;;;1.63;1.53;;;17.90;99.90;;;;;;5085690;28;20509;-78
2023/08/16 04:19:57;;;;;;;2.30;2.20;;;17.90;99.90;;;;;;5087386;28;20443;-78
2023/08/16 04:22:23;;;;;;;1.40;1.30;;;17.80;99.90;;;;;;5086545;28;20456;-80
2023/08/16 04:24:50;;;;;;;1.87;1.77;;;17.80;99.90;;;;;;5084456;28;20535;-79
2023/08/16 04:27:17;;;;;;;2.00;1.67;;;17.70;99.90;;;;;;5077059;28;20501;-78
2023/08/16 04:29:44;;;;;;;3.80;1.70;;;17.70;99.90;;;;;;5085941;28;20527;-81
2023/08/16 04:32:12;;;;;;;1.50;1.40;;;17.70;99.90;;;;;;5086395;28;20446;-78
2023/08/16 04:34:39;;;;;;;1.93;1.73;;;17.80;99.90;;;;;;5086443;28;20822;-79
2023/08/16 04:37:07;;;;;;;1.57;1.47;;;17.90;99.90;;;;;;5084406;28;20462;-79
2023/08/16 04:39:34;;;;;;;1.83;1.73;;;18.00;99.90;;;;;;5084910;28;20462;-79
2023/08/16 04:42:01;;;;;;;1.80;1.67;;;18.10;99.90;;;;;;5086774;28;20482;-78
2023/08/16 04:44:28;;;;;;;2.07;1.70;;;18.20;99.90;;;;;;5082475;28;20930;-79
2023/08/16 04:46:55;;;;;;;2.03;1.87;;;18.30;99.90;;;;;;5084490;28;20579;-77
2023/08/16 04:49:25;;;;;;;2.83;2.63;;;18.50;99.90;;;;;;5086311;28;20509;-78
2023/08/16 04:51:52;;;;;;;3.30;1.70;;;18.70;99.90;;;;;;5083435;28;20451;-74
2023/08/16 04:54:20;;;;;;;1.40;1.30;;;18.80;99.90;;;;;;5076474;28;20948;-78
2023/08/16 04:56:47;;;;;;;1.70;1.60;;;18.90;99.90;;;;;;5086344;28;20925;-79
2023/08/16 04:59:14;;;;;;;1.40;1.30;;;19.00;99.90;;;;;;5085125;28;20447;-79
2023/08/16 05:01:41;;;;;;;2.07;1.43;;;19.20;99.90;;;;;;5078515;28;20525;-80
2023/08/16 05:04:08;;;;;;;1.33;1.23;;;19.10;99.90;;;;;;5082109;28;20455;-80
2023/08/16 05:06:36;;;;;;;1.60;1.50;;;19.30;99.90;;;;;;5080030;28;20941;-77
2023/08/16 05:09:03;;;;;;;4.00;1.13;;;19.40;99.90;;;;;;5080618;28;20463;-78
2023/08/16 05:11:31;;;;;;;1.50;1.40;;;19.70;99.90;;;;;;5068757;28;20453;-77
2023/08/16 05:13:59;;;;;;;1.30;1.20;;;19.80;99.90;;;;;;5073949;28;20889;-80
2023/08/16 05:16:26;;;;;;;1.50;1.40;;;19.80;99.90;;;;;;5065568;28;20524;-79
2023/08/16 05:18:53;;;;;;;1.93;1.80;;;19.80;99.90;;;;;;5068971;28;20471;-79
2023/08/16 05:21:21;;;;;;;1.30;1.20;;;20.00;99.90;;;;;;5072740;28;20522;-78
2023/08/16 05:23:48;;;;;;;1.70;1.60;;;20.20;99.90;;;;;;5075899;28;20465;-79
2023/08/16 05:26:15;;;;;;;2.13;1.93;;;20.40;99.90;;;;;;5076342;28;21199;-78
2023/08/16 05:28:43;;;;;;;1.47;1.37;;;20.60;99.90;;;;;;5081441;28;20451;-78
2023/08/16 05:31:11;;;;;;;2.80;1.77;;;20.60;99.90;;;;;;5082100;28;20497;-79
2023/08/16 05:33:38;;;;;;;5.07;1.87;;;20.70;99.90;;;;;;5076120;28;20542;-79
2023/08/16 05:36:06;;;;;;;1.40;1.30;;;20.80;99.90;;;;;;5074848;28;20503;-79
2023/08/16 05:38:34;;;;;;;2.17;1.97;;;20.80;99.90;;;;;;5069379;28;20564;-79
2023/08/16 05:41:03;;;;;;;2.03;1.83;;;20.90;99.90;;;;;;5077000;28;20875;-79
2023/08/16 05:43:30;;;;;;;1.60;1.50;;;21.00;99.90;;;;;;5079229;28;20462;-78
2023/08/16 05:45:58;;;;;;;2.27;1.30;;;21.20;99.90;;;;;;5069821;28;21122;-78
2023/08/16 05:48:25;;;;;;;4.00;1.63;;;21.20;99.90;;;;;;5075223;28;21011;-78
2023/08/16 05:50:52;;;;;;;1.57;1.47;;;21.20;99.90;;;;;;5076470;28;20440;-76
2023/08/16 05:53:19;;;;;;;2.63;1.57;;;21.10;99.90;;;;;;5075842;28;20435;-77
2023/08/16 05:55:46;;;;;;;3.87;1.90;;;21.20;99.90;;;;;;5080584;28;20478;-81
2023/08/16 05:58:13;;;;;;;1.40;1.30;;;21.50;99.90;;;;;;5073840;28;20440;-80
2023/08/16 06:00:40;;;;;;;1.33;1.23;;;21.60;99.90;;;;;;5078440;28;20524;-78
2023/08/16 06:03:08;;;;;;;2.33;1.70;;;21.80;99.90;;;;;;5082153;28;21027;-78
2023/08/16 06:05:35;;;;;;;3.00;1.70;;;21.90;99.90;;;;;;5083279;28;20511;-79
2023/08/16 06:08:02;;;;;;;1.63;1.53;;;21.90;99.90;;;;;;5078353;28;20499;-79
2023/08/16 06:10:29;;;;;;;1.67;1.37;;;22.00;99.90;;;;;;5081204;28;20938;-80
2023/08/16 06:12:56;;;;;;;1.77;1.67;;;22.30;99.90;;;;;;5072219;28;20445;-79
2023/08/16 06:15:23;;;;;;;3.27;2.00;;;22.60;99.90;;;;;;5069047;28;20443;-80
2023/08/16 06:17:50;;;;;;;1.40;1.30;;;22.50;99.90;;;;;;5075822;28;20435;-80
2023/08/16 06:20:19;;;;;;;2.20;1.93;;;22.50;99.90;;;;;;5071618;28;20528;-80
2023/08/16 06:22:45;;;;;;;1.57;1.47;;;22.60;99.90;;;;;;5074921;28;20513;-79
2023/08/16 06:25:13;;;;;;;2.27;2.07;;;22.50;99.90;;;;;;5074043;28;20451;-80
2023/08/16 06:27:40;;;;;;;4.27;1.40;;;22.30;99.90;;;;;;5080130;28;20970;-79
2023/08/16 06:30:08;;;;;;;5.23;1.67;;;22.10;99.90;;;;;;5082378;28;20543;-78
2023/08/16 06:32:35;;;;;;;1.40;0.90;;;22.00;99.90;;;;;;5082837;28;20478;-81
2023/08/16 06:35:04;;;;;;;1.80;1.60;;;22.10;99.90;;;;;;5079472;28;20489;-78
2023/08/16 06:37:32;;;;;;;1.70;1.60;;;21.90;99.90;;;;;;5082981;28;20451;-78
2023/08/16 06:40:04;;;;;;;1.30;1.20;;;21.90;99.90;;;;;;5070811;28;20440;-79
2023/08/16 06:42:31;;;;;;;4.50;1.23;;;22.00;99.90;;;;;;5073581;28;20452;-79
2023/08/16 06:44:58;;;;;;;7.23;1.67;;;22.30;99.90;;;;;;5079572;28;20554;-79
2023/08/16 06:47:25;;;;;;;1.60;1.50;;;22.60;99.90;;;;;;5069458;28;20545;-79
2023/08/16 06:49:52;;;;;;;1.80;1.70;;;22.70;99.90;;;;;;5083881;28;20849;-80
2023/08/16 06:52:19;;;;;;;1.87;1.30;;;22.90;99.90;;;;;;5082159;28;21172;-79
2023/08/16 06:54:48;;;;;;;1.80;1.27;;;23.00;99.90;;;;;;5078292;28;20923;-81
2023/08/16 06:57:15;;;;;;;3.27;2.70;;;23.10;99.90;;;;;;5084417;28;20464;-78
2023/08/16 06:59:42;;;;;;;4.50;2.93;;;23.00;99.90;;;;;;5074656;28;21028;-78
2023/08/16 07:02:10;;;;;;;1.90;1.80;;;22.90;99.90;;;;;;5081880;28;20460;-78
2023/08/16 07:04:38;;;;;;;3.90;3.03;;;23.00;99.90;;;;;;5085688;28;20447;-76
2023/08/16 07:07:05;;;;;;;2.77;2.27;;;22.80;99.90;;;;;;5082210;28;20545;-77
2023/08/16 07:09:32;;;;;;;3.33;2.60;;;23.10;99.90;;;;;;5078254;28;20552;-81
2023/08/16 07:12:01;;;;;;;4.33;2.87;;;23.20;99.90;;;;;;5074890;28;20458;-78
2023/08/16 07:14:28;;;;;;;2.43;2.30;;;23.40;99.90;;;;;;5069686;28;20824;-78
2023/08/16 07:16:55;;;;;;;3.10;2.90;;;23.60;99.90;;;;;;5079185;28;20495;-81
2023/08/16 07:19:23;;;;;;;2.17;2.00;;;23.70;99.90;;;;;;5081503;28;20851;-79
2023/08/16 07:21:50;;;;;;;1.93;1.83;;;24.10;99.90;;;;;;5084826;28;20447;-78
2023/08/16 07:24:17;;;;;;;4.07;3.10;;;24.10;99.90;;;;;;5084002;28;20435;-79
2023/08/16 07:26:43;;;;;;;2.43;2.27;;;24.20;99.90;;;;;;5080466;28;20525;-80
2023/08/16 07:29:12;;;;;;;2.50;2.30;;;24.30;99.90;;;;;;5078856;28;20447;-78
2023/08/16 07:31:39;;;;;;;2.37;2.17;;;24.30;99.90;;;;;;5074945;28;20499;-79
2023/08/16 07:34:06;;;;;;;2.00;1.90;;;24.40;99.90;;;;;;5077802;28;20466;-77
2023/08/16 07:36:33;;;;;;;3.37;3.10;;;24.40;99.90;;;;;;5080084;28;20530;-78
2023/08/16 07:39:00;;;;;;;3.40;2.23;;;24.10;99.90;;;;;;5079878;28;20942;-81
2023/08/16 07:41:27;;;;;;;5.63;2.90;;;24.00;99.90;;;;;;5079448;28;20446;-77
2023/08/16 07:43:53;;;;;;;5.03;4.07;;;23.50;99.90;;;;;;5076078;28;20526;-79
2023/08/16 07:46:22;;;;;;;2.60;2.20;;;23.50;99.90;;;;;;5073493;28;20535;-78
2023/08/16 07:48:49;;;;;;;2.00;1.90;;;23.40;99.90;;;;;;5081069;28;20478;-78
2023/08/16 07:51:16;;;;;;;18.30;7.10;;;23.60;99.90;;;;;;5067444;28;21246;-77
2023/08/16 07:53:43;;;;;;;2.00;1.90;;;23.50;99.90;;;;;;5075818;28;20501;-77
2023/08/16 07:56:10;;;;;;;2.83;2.30;;;23.60;99.90;;;;;;5075092;28;20475;-77
2023/08/16 07:58:37;;;;;;;3.20;1.47;;;23.50;99.90;;;;;;5079934;28;20950;-78
2023/08/16 08:01:04;;;;;;;7.17;4.80;;;23.60;99.90;;;;;;5087546;28;20557;-78
2023/08/16 08:03:33;;;;;;;3.53;1.53;;;23.80;99.90;;;;;;5084363;28;20471;-77
2023/08/16 08:06:03;;;;;;;2.27;2.07;;;23.70;99.90;;;;;;5082575;28;20494;-78
2023/08/16 08:08:31;;;;;;;2.90;1.70;;;23.70;99.90;;;;;;5081183;28;20470;-80
2023/08/16 08:10:58;;;;;;;1.60;1.43;;;23.60;99.90;;;;;;5087757;28;20451;-81
2023/08/16 08:13:24;;;;;;;2.10;1.83;;;23.40;99.90;;;;;;5086532;28;20467;-77
2023/08/16 08:15:51;;;;;;;3.00;2.80;;;23.50;99.90;;;;;;5072863;28;20518;-78
2023/08/16 08:18:18;;;;;;;1.87;1.77;;;23.60;99.90;;;;;;5078038;28;20446;-76
2023/08/16 08:20:47;;;;;;;2.10;2.00;;;23.40;99.90;;;;;;5086615;28;20901;-77
2023/08/16 08:23:15;;;;;;;2.47;1.87;;;23.40;99.90;;;;;;5081740;28;20463;-81
2023/08/16 08:25:44;;;;;;;2.40;1.53;;;23.60;99.90;;;;;;5081836;28;20484;-78
2023/08/16 08:28:11;;;;;;;3.17;2.80;;;23.90;99.90;;;;;;5082199;28;20498;-77
2023/08/16 08:30:41;;;;;;;3.57;1.80;;;24.00;99.90;;;;;;5075852;28;20451;-78
2023/08/16 08:33:08;;;;;;;1.97;1.87;;;24.00;99.90;;;;;;5083164;28;20446;-79
2023/08/16 08:35:35;;;;;;;2.50;1.97;;;24.10;99.90;;;;;;5081042;28;20928;-79
2023/08/16 08:38:04;;;;;;;2.33;1.70;;;24.40;99.90;;;;;;5080721;28;20451;-77
2023/08/16 08:40:32;;;;;;;1.43;1.33;;;24.60;99.90;;;;;;5074957;28;21364;-79
2023/08/16 08:43:00;;;;;;;2.43;1.90;;;24.80;99.90;;;;;;5083903;28;20439;-80
2023/08/16 08:45:27;;;;;;;1.80;1.70;;;25.20;99.90;;;;;;5070734;28;20473;-79
2023/08/16 08:47:57;;;;;;;1.87;1.77;;;25.50;99.90;;;;;;5078389;28;20486;-78
2023/08/16 08:50:24;;;;;;;3.70;1.77;;;25.40;99.90;;;;;;5074224;28;20972;-78
2023/08/16 08:52:52;;;;;;;1.60;1.50;;;25.60;99.90;;;;;;5082638;28;20552;-78
2023/08/16 08:55:21;;;;;;;1.93;1.43;;;25.60;99.90;;;;;;5078496;28;20515;-79
2023/08/16 08:57:50;;;;;;;1.30;1.20;;;25.20;99.90;;;;;;5077670;28;20448;-76
2023/08/16 09:00:22;;;;;;;6.67;2.53;;;25.20;99.90;;;;;;5082033;28;20503;-78
2023/08/16 09:02:50;;;;;;;3.97;2.70;;;25.50;99.90;;;;;;5068084;28;20456;-78
2023/08/16 09:05:21;;;;;;;1.90;1.80;;;26.20;99.90;;;;;;5078719;28;20445;-79
2023/08/16 09:07:48;;;;;;;1.23;1.13;;;26.50;99.90;;;;;;5077063;28;20493;-79
2023/08/16 09:10:16;;;;;;;2.43;1.50;;;26.60;99.90;;;;;;5065923;28;20835;-79
2023/08/16 09:12:45;;;;;;;1.67;1.30;;;26.60;99.90;;;;;;5071236;28;20441;-79
2023/08/16 09:15:12;;;;;;;3.00;1.33;;;27.00;99.90;;;;;;5076296;28;20510;-80
2023/08/16 09:17:39;;;;;;;1.17;1.07;;;26.90;99.90;;;;;;5077751;28;20457;-83
2023/08/16 09:20:08;;;;;;;1.20;1.10;;;27.00;99.90;;;;;;5075875;28;20490;-82
2023/08/16 09:22:38;;;;;;;1.20;1.10;;;27.10;99.90;;;;;;5078125;28;20966;-83
2023/08/16 09:25:10;;;;;;;1.93;1.33;;;27.20;99.90;;;;;;5075197;28;20655;-79
2023/08/16 09:27:37;;;;;;;1.40;1.30;;;27.10;99.90;;;;;;5068580;28;20613;-80
2023/08/16 09:30:12;;;;;;;5.20;1.63;;;26.80;99.90;;;;;;5075591;28;20447;-78
2023/08/16 09:32:39;;;;;;;1.30;1.10;;;27.00;99.90;;;;;;5076187;28;20488;-79
2023/08/16 09:35:06;;;;;;;2.50;1.00;;;26.90;99.90;;;;;;5077983;28;20525;-80
2023/08/16 09:37:33;;;;;;;1.90;1.80;;;26.80;99.90;;;;;;5068785;28;20459;-81
2023/08/16 09:40:02;;;;;;;1.10;1.03;;;26.70;99.90;;;;;;5071878;28;20444;-80
2023/08/16 09:42:33;;;;;;;2.33;1.33;;;27.00;99.90;;;;;;5068757;28;21148;-83
2023/08/16 09:45:00;;;;;;;1.00;1.00;;;27.10;99.90;;;;;;5069984;28;20543;-81
2023/08/16 09:47:30;;;;;;;1.50;1.40;;;27.20;99.30;;;;;;5081596;28;20493;-80
2023/08/16 09:49:58;;;;;;;0.80;0.80;;;27.20;99.90;;;;;;5070879;28;21126;-79
2023/08/16 09:52:27;;;;;;;1.40;1.27;;;27.30;99.90;;;;;;5075193;28;20548;-80
2023/08/16 09:54:56;;;;;;;1.40;1.30;;;27.50;99.60;;;;;;5079446;28;20813;-82
2023/08/16 09:57:24;;;;;;;2.23;2.13;;;27.60;99.90;;;;;;5076331;28;20495;-79
2023/08/16 09:59:51;;;;;;;1.20;1.10;;;27.50;99.80;;;;;;5085864;28;20443;-83
2023/08/16 10:02:19;;;;;;;2.10;1.40;;;27.80;98.50;;;;;;5085341;28;20528;-80
2023/08/16 10:04:51;;;;;;;1.23;1.13;;;27.30;99.90;;;;;;5078248;28;20982;-80
2023/08/16 10:07:19;;;;;;;1.73;1.20;;;27.50;99.90;;;;;;5078190;28;20534;-81
2023/08/16 10:09:47;;;;;;;2.10;1.43;;;27.40;99.90;;;;;;5085879;28;20466;-79
2023/08/16 10:12:15;;;;;;;1.50;1.40;;;27.80;99.90;;;;;;5078265;28;20447;-79
2023/08/16 10:14:41;;;;;;;2.20;2.10;;;28.10;97.90;;;;;;5080283;28;20499;-81
2023/08/16 10:17:11;;;;;;;2.10;1.40;;;28.20;99.10;;;;;;5081023;28;20439;-80
2023/08/16 10:19:43;;;;;;;1.30;1.20;;;28.30;98.10;;;;;;5088906;28;20457;-80
2023/08/16 10:22:19;;;;;;;1.73;1.63;;;28.30;97.60;;;;;;5088713;28;20909;-79
2023/08/16 10:24:48;;;;;;;1.90;1.50;;;28.40;99.00;;;;;;5084691;28;20534;-82
2023/08/16 10:27:15;;;;;;;2.30;1.40;;;28.20;97.60;;;;;;5086299;28;21028;-80
2023/08/16 10:29:45;;;;;;;1.70;1.60;;;28.10;96.70;;;;;;5088907;28;20576;-82
2023/08/16 10:32:16;;;;;;;1.60;1.50;;;28.30;95.90;;;;;;5088236;28;20524;-80
2023/08/16 10:34:43;;;;;;;1.50;1.40;;;28.40;95.90;;;;;;5087939;28;20454;-77
2023/08/16 10:37:13;;;;;;;1.30;1.20;;;28.70;96.90;;;;;;5088671;28;20944;-77
2023/08/16 10:39:48;;;;;;;1.80;1.70;;;29.10;96.70;;;;;;5087218;28;20493;-78
2023/08/16 10:42:15;;;;;;;2.33;1.47;;;29.20;96.10;;;;;;5081995;28;20493;-77
2023/08/16 10:44:51;;;;;;;1.60;1.50;;;29.10;96.80;;;;;;5077786;28;20491;-80
2023/08/16 10:47:28;;;;;;;1.73;1.40;;;29.00;98.10;;;;;;5083206;28;20569;-78
2023/08/16 10:49:56;;;;;;;2.30;1.10;;;28.90;95.50;;;;;;5079950;28;20491;-80
2023/08/16 10:52:29;;;;;;;5.63;1.53;;;29.00;97.60;;;;;;5072358;28;21249;-77
2023/08/16 10:54:56;;;;;;;1.40;1.27;;;29.10;96.40;;;;;;5080829;28;20451;-80
2023/08/16 10:57:26;;;;;;;1.23;1.13;;;28.90;94.80;;;;;;5088859;28;20439;-78
2023/08/16 11:00:04;;;;;;;1.53;1.43;;;28.80;95.80;;;;;;5077521;28;20875;-78
2023/08/16 11:02:32;;;;;;;1.33;1.23;;;28.50;97.00;;;;;;5082708;28;20463;-80
2023/08/16 11:05:00;;;;;;;2.47;2.27;;;28.80;95.90;;;;;;5082558;28;20544;-79
2023/08/16 11:07:29;;;;;;;3.43;1.50;;;28.80;95.50;;;;;;5084700;28;20474;-79
2023/08/16 11:10:00;;;;;;;2.53;1.67;;;28.90;94.20;;;;;;5080258;28;21066;-78
2023/08/16 11:12:30;;;;;;;1.87;1.77;;;28.60;94.40;;;;;;5073406;28;20531;-79
2023/08/16 11:14:58;;;;;;;2.70;2.60;;;28.80;95.20;;;;;;5078805;28;20899;-80
2023/08/16 11:17:27;;;;;;;2.53;2.33;;;28.90;93.80;;;;;;5077308;28;20547;-81
2023/08/16 11:19:54;;;;;;;2.73;2.53;;;28.90;92.80;;;;;;5081600;28;20978;-83
2023/08/16 11:22:22;;;;;;;1.80;1.70;;;28.70;92.80;;;;;;5079510;28;20479;-79
2023/08/16 11:24:51;;;;;;;3.37;2.07;;;28.80;92.40;;;;;;5077357;28;20545;-80
2023/08/16 11:27:22;;;;;;;3.90;2.27;;;28.90;93.40;;;;;;5079885;28;20696;-78
2023/08/16 11:29:50;;;;;;;2.50;2.30;;;29.00;94.90;;;;;;5078281;28;20492;-79
2023/08/16 11:32:17;;;;;;;2.90;2.50;;;29.30;92.10;;;;;;5082171;28;20466;-84
2023/08/16 11:34:44;;;;;;;1.80;1.70;;;29.10;92.80;;;;;;5087275;28;20498;-81
2023/08/16 11:37:19;;;;;;;2.90;2.30;;;29.20;91.80;;;;;;5079840;28;20856;-82
2023/08/16 11:39:46;;;;;;;2.60;2.13;;;29.20;92.50;;;;;;5074647;28;20458;-79
2023/08/16 11:42:14;;;;;;;2.00;1.90;;;28.90;91.80;;;;;;5084218;28;20495;-81
2023/08/16 11:44:41;;;;;;;2.43;2.23;;;29.00;92.00;;;;;;5076487;28;20553;-81
2023/08/16 11:47:12;;;;;;;2.80;2.10;;;29.20;92.60;;;;;;5080143;28;20487;-78
2023/08/16 11:49:38;;;;;;;7.77;2.47;;;29.40;92.50;;;;;;5084467;28;20443;-80
2023/08/16 11:52:06;;;;;;;2.23;2.13;;;29.70;93.90;;;;;;5076025;28;20448;-76
2023/08/16 11:54:33;;;;;;;2.30;2.20;;;29.60;92.30;;;;;;5079810;28;20544;-79
2023/08/16 11:57:00;;;;;;;2.37;2.27;;;29.70;94.70;;;;;;5083449;28;20521;-79
2023/08/16 11:59:31;;;;;;;6.83;2.40;;;29.60;91.30;;;;;;5079783;28;20954;-79
2023/08/16 12:02:06;;;;;;;2.13;2.03;;;29.70;93.40;;;;;;5081956;28;20555;-78
2023/08/16 12:04:33;;;;;;;8.90;3.03;;;29.70;91.60;;;;;;5079771;28;20544;-79
2023/08/16 12:07:00;;;;;;;3.90;2.73;;;29.60;92.60;;;;;;5085774;28;20467;-80
2023/08/16 12:09:30;;;;;;;1.90;1.70;;;29.80;91.10;;;;;;5078401;28;21200;-79
2023/08/16 12:11:57;;;;;;;2.20;2.10;;;29.70;92.60;;;;;;5074850;28;20505;-82
2023/08/16 12:14:24;;;;;;;4.63;3.47;;;29.80;93.20;;;;;;5068923;28;20460;-79
2023/08/16 12:16:52;;;;;;;3.10;2.90;;;29.80;92.20;;;;;;5085267;28;20454;-81
2023/08/16 12:19:20;;;;;;;2.30;2.20;;;29.80;91.00;;;;;;5083067;28;20541;-84
2023/08/16 12:21:47;;;;;;;2.40;2.00;;;29.70;90.80;;;;;;5081122;28;20493;-83
2023/08/16 12:24:14;;;;;;;2.47;2.27;;;29.70;90.50;;;;;;5080548;28;20513;-79
2023/08/16 12:26:41;;;;;;;3.60;2.70;;;29.80;90.30;;;;;;5071286;28;20441;-79
2023/08/16 12:29:08;;;;;;;2.67;2.47;;;29.80;90.50;;;;;;5072316;28;21084;-80
2023/08/16 12:31:35;;;;;;;2.93;2.50;;;29.90;92.30;;;;;;5077300;28;21177;-80
2023/08/16 12:34:03;;;;;;;2.47;2.37;;;30.10;87.90;;;;;;5078881;28;20490;-80
2023/08/16 12:36:30;;;;;;;2.73;2.43;;;30.10;92.50;;;;;;5081257;28;20537;-80
2023/08/16 12:38:57;;;;;;;2.53;2.33;;;30.20;88.50;;;;;;5082751;28;20467;-79
2023/08/16 12:41:24;;;;;;;2.27;2.17;;;30.10;90.70;;;;;;5078939;28;20487;-80
2023/08/16 12:43:52;;;;;;;3.17;2.60;;;30.20;89.40;;;;;;5081216;28;20560;-81
2023/08/16 12:46:19;;;;;;;3.53;3.33;;;30.30;85.70;;;;;;5069843;28;20463;-80
2023/08/16 12:48:46;;;;;;;2.80;2.40;;;30.40;91.80;;;;;;5074028;28;20569;-80
2023/08/16 12:51:15;;;;;;;3.03;2.83;;;30.60;90.80;;;;;;5070371;28;21070;-79